Time;durP1;ratioP1;P1;durP2;ratioP2;P2;SDS_P1;SDS_P2;PMS_P1;PMS_P2;Temp;Humidity;BMP_temperature;BMP_pressure;BME280_temperature;BME280_humidity;BME280_pressure;Samples;Min_cycle;Max_cycle;Signal;HPM_P1;HPM_P2
2022/04/05 00:00:10;;;;;;;30.60;15.05;;;;;;;8.51;100.00;100349.56;7388652;19;20023;-52
2022/04/05 00:02:39;;;;;;;25.23;12.30;;;;;;;8.28;100.00;100351.34;7389165;19;20015;-59
2022/04/05 00:05:09;;;;;;;16.45;9.02;;;;;;;7.93;100.00;100362.34;7386534;19;20015;-59
2022/04/05 00:07:39;;;;;;;20.48;9.30;;;;;;;7.80;100.00;100374.19;7388623;19;20006;-59
2022/04/05 00:10:09;;;;;;;16.00;8.20;;;;;;;7.68;100.00;100385.97;7386455;19;20014;-58
2022/04/05 00:12:40;;;;;;;15.20;7.93;;;;;;;7.67;100.00;100393.84;7388907;19;20336;-57
2022/04/05 00:15:11;;;;;;;14.98;7.15;;;;;;;7.58;100.00;100387.25;7387280;19;20301;-57
2022/04/05 00:17:41;;;;;;;17.30;7.32;;;;;;;7.47;100.00;100386.81;7386773;19;20026;-59
2022/04/05 00:20:11;;;;;;;9.45;5.55;;;;;;;7.40;100.00;100380.97;7387608;19;20014;-59
2022/04/05 00:22:40;;;;;;;10.95;5.30;;;;;;;7.28;100.00;100380.53;7382771;19;20014;-59
2022/04/05 00:25:10;;;;;;;11.63;5.10;;;;;;;7.30;100.00;100395.25;7380833;19;20026;-60
2022/04/05 00:27:41;;;;;;;8.23;4.40;;;;;;;7.26;100.00;100382.34;7387758;19;20029;-56
2022/04/05 00:30:11;;;;;;;6.15;3.45;;;;;;;7.25;100.00;100388.47;7386908;19;20390;-56
2022/04/05 00:32:40;;;;;;;5.63;3.75;;;;;;;7.27;100.00;100391.84;7388473;19;20038;-57
2022/04/05 00:35:11;;;;;;;8.95;4.03;;;;;;;7.25;100.00;100393.66;7384087;19;20378;-52
2022/04/05 00:37:41;;;;;;;10.63;4.65;;;;;;;7.30;100.00;100390.03;7391534;19;20386;-57
2022/04/05 00:40:11;;;;;;;7.47;4.30;;;;;;;7.18;100.00;100389.59;7393759;19;20102;-58
2022/04/05 00:42:43;;;;;;;10.35;4.80;;;;;;;7.16;100.00;100396.59;7395732;19;20221;-56
2022/04/05 00:45:15;;;;;;;9.60;4.60;;;;;;;7.22;100.00;100398.13;7392232;19;20010;-58
2022/04/05 00:47:48;;;;;;;9.50;4.60;;;;;;;7.24;100.00;100399.78;7392810;19;20402;-57
2022/04/05 00:50:21;;;;;;;10.00;5.43;;;;;;;7.21;100.00;100394.69;7394242;19;20245;-59
2022/04/05 00:52:50;;;;;;;6.25;4.10;;;;;;;7.16;100.00;100398.38;7394433;19;20011;-59
2022/04/05 00:55:22;;;;;;;9.32;4.13;;;;;;;7.16;100.00;100404.41;7394403;19;20015;-57
2022/04/05 00:57:55;;;;;;;7.95;3.85;;;;;;;7.16;100.00;100398.38;7394415;19;20336;-59
2022/04/05 01:00:24;;;;;;;7.32;3.90;;;;;;;7.10;100.00;100409.88;7393876;19;20487;-59
2022/04/05 01:02:56;;;;;;;7.95;4.53;;;;;;;7.12;100.00;100404.59;7393994;19;20014;-58
2022/04/05 01:05:27;;;;;;;9.82;5.07;;;;;;;7.03;100.00;100406.63;7392359;19;20488;-57
2022/04/05 01:07:59;;;;;;;9.38;4.35;;;;;;;7.20;100.00;100405.16;7393472;19;20026;-58
2022/04/05 01:10:30;;;;;;;8.27;4.70;;;;;;;7.15;100.00;100415.78;7393231;19;20018;-57
2022/04/05 01:13:01;;;;;;;9.18;5.50;;;;;;;7.19;100.00;100417.38;7395172;19;20064;-58
2022/04/05 01:15:31;;;;;;;10.43;5.75;;;;;;;7.16;100.00;100421.81;7394620;19;20015;-54
2022/04/05 01:18:00;;;;;;;12.75;5.60;;;;;;;7.14;100.00;100419.28;7392530;19;20018;-59
2022/04/05 01:20:29;;;;;;;11.90;5.55;;;;;;;7.18;100.00;100409.56;7393014;19;20010;-58
2022/04/05 01:22:58;;;;;;;11.20;6.28;;;;;;;7.14;100.00;100400.19;7393324;19;20019;-58
2022/04/05 01:25:29;;;;;;;11.15;5.78;;;;;;;7.10;100.00;100394.22;7391430;19;20025;-55
2022/04/05 01:27:58;;;;;;;8.85;5.95;;;;;;;7.03;100.00;100400.56;7392922;19;20098;-59
2022/04/05 01:30:27;;;;;;;15.20;6.38;;;;;;;7.06;100.00;100405.66;7392370;19;20360;-57
2022/04/05 01:32:59;;;;;;;12.65;6.75;;;;;;;7.10;100.00;100415.91;7391578;19;20022;-57
2022/04/05 01:35:28;;;;;;;14.47;7.00;;;;;;;7.14;100.00;100403.63;7394675;19;20081;-57
2022/04/05 01:37:57;;;;;;;13.63;6.75;;;;;;;7.09;100.00;100410.75;7394743;19;20021;-58
2022/04/05 01:40:29;;;;;;;10.88;6.25;;;;;;;7.00;100.00;100413.72;7397021;19;20467;-56
2022/04/05 01:42:59;;;;;;;12.75;6.90;;;;;;;7.10;100.00;100418.53;7398356;19;20029;-58
2022/04/05 01:45:28;;;;;;;13.52;6.57;;;;;;;6.97;100.00;100424.25;7400293;19;20436;-58
2022/04/05 01:47:57;;;;;;;19.02;6.28;;;;;;;6.97;100.00;100417.28;7401718;19;20371;-58
2022/04/05 01:50:26;;;;;;;13.60;5.35;;;;;;;6.83;100.00;100422.13;7401460;19;20011;-51
2022/04/05 01:52:55;;;;;;;7.70;5.38;;;;;;;6.84;100.00;100424.66;7400203;19;20021;-57
2022/04/05 01:55:23;;;;;;;9.23;4.90;;;;;;;6.80;100.00;100425.69;7393882;19;20026;-56
2022/04/05 01:57:55;;;;;;;10.30;5.10;;;;;;;6.83;100.00;100435.16;7393624;19;20760;-51
2022/04/05 02:00:24;;;;;;;10.90;5.70;;;;;;;6.82;100.00;100431.69;7393356;19;20010;-56
2022/04/05 02:02:53;;;;;;;13.52;6.50;;;;;;;6.93;100.00;100428.69;7393413;19;20475;-58
2022/04/05 02:05:23;;;;;;;11.77;6.32;;;;;;;7.05;100.00;100428.28;7391322;19;20083;-55
2022/04/05 02:07:52;;;;;;;13.93;7.05;;;;;;;7.00;100.00;100418.94;7394567;19;20011;-52
2022/04/05 02:10:22;;;;;;;17.42;6.95;;;;;;;6.98;100.00;100426.81;7391989;19;20014;-53
2022/04/05 02:12:52;;;;;;;12.77;6.25;;;;;;;6.96;100.00;100428.59;7392830;19;20078;-55
2022/04/05 02:15:31;;;;;;;13.88;6.53;;;;;;;6.98;100.00;100423.31;7392644;19;20019;-52
2022/04/05 02:18:07;;;;;;;18.02;7.68;;;;;;;7.08;100.00;100425.56;7392900;19;20328;-53
2022/04/05 02:20:36;;;;;;;14.30;7.03;;;;;;;7.14;100.00;100424.47;7390363;19;20013;-52
2022/04/05 02:23:05;;;;;;;15.98;7.35;;;;;;;7.12;100.00;100428.91;7390343;19;20014;-53
2022/04/05 02:25:44;;;;;;;13.80;7.40;;;;;;;7.09;100.00;100422.06;7388942;19;20019;-58
2022/04/05 02:28:15;;;;;;;14.85;7.53;;;;;;;7.05;100.00;100430.00;7389976;19;20119;-59
2022/04/05 02:30:53;;;;;;;14.55;7.07;;;;;;;7.09;100.00;100426.41;7391062;19;20010;-54
2022/04/05 02:33:27;;;;;;;14.45;6.97;;;;;;;7.08;100.00;100424.72;7390040;19;20343;-56
2022/04/05 02:36:02;;;;;;;18.02;7.80;;;;;;;7.04;100.00;100421.34;7389781;19;20011;-55
2022/04/05 02:38:32;;;;;;;13.75;6.65;;;;;;;6.97;100.00;100422.47;7390307;19;20025;-55
2022/04/05 02:41:04;;;;;;;15.98;7.38;;;;;;;7.00;100.00;100418.94;7389561;19;20006;-53
2022/04/05 02:43:33;;;;;;;15.17;6.97;;;;;;;7.03;100.00;100424.84;7383200;19;20011;-55
2022/04/05 02:46:08;;;;;;;16.30;6.93;;;;;;;7.00;100.00;100424.97;7381375;19;20021;-55
2022/04/05 02:48:43;;;;;;;13.80;6.15;;;;;;;6.96;100.00;100419.94;7388218;19;20029;-57
2022/04/05 02:51:13;;;;;;;15.88;7.47;;;;;;;6.95;100.00;100420.84;7389948;19;20702;-57
2022/04/05 02:53:43;;;;;;;18.52;7.20;;;;;;;6.95;100.00;100419.09;7382912;19;20022;-58
2022/04/05 02:56:13;;;;;;;17.48;7.28;;;;;;;6.88;100.00;100417.63;7387281;19;20021;-54
2022/04/05 02:58:47;;;;;;;15.02;7.60;;;;;;;6.90;100.00;100414.03;7390538;19;20025;-55
2022/04/05 03:01:20;;;;;;;16.20;8.05;;;;;;;6.92;100.00;100422.66;7392207;19;20022;-53
2022/04/05 03:03:50;;;;;;;20.27;8.15;;;;;;;6.92;100.00;100424.41;7391554;19;20360;-53
2022/04/05 03:06:20;;;;;;;22.17;7.72;;;;;;;6.99;100.00;100427.63;7389866;19;20007;-54
2022/04/05 03:08:52;;;;;;;19.73;8.82;;;;;;;6.89;100.00;100427.97;7392003;19;20018;-52
2022/04/05 03:11:22;;;;;;;;;;;;;;;6.90;100.00;100424.44;7391819;19;20443;-54
2022/04/05 03:13:53;;;;;;;19.42;8.75;;;;;;;6.91;100.00;100426.16;7390747;19;19918;-53
2022/04/05 03:16:26;;;;;;;20.90;8.80;;;;;;;6.95;100.00;100423.44;7390728;19;20052;-56
2022/04/05 03:18:57;;;;;;;22.50;8.65;;;;;;;6.97;100.00;100429.47;7391513;19;20014;-55
2022/04/05 03:21:26;;;;;;;24.83;10.25;;;;;;;6.93;100.00;100433.91;7391487;19;20015;-53
2022/04/05 03:23:55;;;;;;;23.90;9.45;;;;;;;6.93;100.00;100428.69;7391984;19;20029;-54
2022/04/05 03:26:24;;;;;;;24.08;9.73;;;;;;;6.92;100.00;100424.41;7389500;19;20074;-54
2022/04/05 03:28:53;;;;;;;21.17;8.90;;;;;;;6.85;100.00;100422.91;7391565;19;20489;-53
2022/04/05 03:31:22;;;;;;;23.35;9.63;;;;;;;6.84;100.00;100422.06;7390306;19;20051;-53
2022/04/05 03:33:57;;;;;;;20.50;9.25;;;;;;;6.88;100.00;100426.25;7389612;19;20015;-53
2022/04/05 03:36:26;;;;;;;22.85;9.70;;;;;;;6.79;100.00;100424.00;7390048;19;20015;-57
2022/04/05 03:38:56;;;;;;;24.35;9.25;;;;;;;6.80;100.00;100425.69;7390547;19;20021;-52
2022/04/05 03:41:25;;;;;;;18.55;8.85;;;;;;;6.82;100.00;100416.06;7389356;19;20499;-52
2022/04/05 03:43:54;;;;;;;20.75;9.50;;;;;;;6.74;100.00;100420.69;7389008;19;20119;-53
2022/04/05 03:46:30;;;;;;;22.85;10.73;;;;;;;6.80;100.00;100411.81;7388011;19;20025;-55
2022/04/05 03:49:02;;;;;;;25.00;10.35;;;;;;;6.78;100.00;100421.41;7389091;19;20066;-53
2022/04/05 03:51:32;;;;;;;19.95;9.98;;;;;;;6.75;100.00;100425.00;7389268;19;20086;-58
2022/04/05 03:54:04;;;;;;;23.00;10.15;;;;;;;6.80;100.00;100420.47;7388709;19;20086;-59
2022/04/05 03:56:37;;;;;;;24.17;10.45;;;;;;;6.81;100.00;100418.75;7390292;19;20381;-57
2022/04/05 03:59:08;;;;;;;24.07;9.87;;;;;;;6.86;100.00;100411.59;7388183;19;20013;-57
2022/04/05 04:01:38;;;;;;;26.50;10.60;;;;;;;6.92;100.00;100425.25;7391357;19;20014;-58
2022/04/05 04:04:10;;;;;;;25.50;10.75;;;;;;;6.91;100.00;100410.53;7387956;19;20110;-60
2022/04/05 04:06:40;;;;;;;26.02;11.20;;;;;;;6.87;100.00;100414.13;7387679;19;20370;-60
2022/04/05 04:09:11;;;;;;;33.75;17.40;;;;;;;6.89;100.00;100412.34;7387214;19;20010;-56
2022/04/05 04:11:41;;;;;;;44.90;14.65;;;;;;;6.89;100.00;100419.28;7383703;19;20075;-60
2022/04/05 04:14:11;;;;;;;30.13;12.50;;;;;;;6.86;100.00;100420.28;7387749;19;20368;-56
2022/04/05 04:16:40;;;;;;;41.55;15.55;;;;;;;6.92;100.00;100412.25;7394942;19;20014;-60
2022/04/05 04:19:12;;;;;;;43.25;15.45;;;;;;;6.95;100.00;100406.06;7395165;19;20019;-57
2022/04/05 04:21:42;;;;;;;48.95;17.05;;;;;;;6.98;100.00;100411.16;7395824;19;20011;-57
2022/04/05 04:24:11;;;;;;;47.22;16.90;;;;;;;7.05;100.00;100409.16;7393907;19;20372;-59
2022/04/05 04:26:40;;;;;;;45.63;18.30;;;;;;;6.99;100.00;100409.41;7393597;19;20023;-58
2022/04/05 04:29:09;;;;;;;49.97;17.58;;;;;;;6.98;100.00;100412.91;7395859;19;20026;-61
2022/04/05 04:31:38;;;;;;;44.75;17.13;;;;;;;6.94;100.00;100412.19;7396534;19;20342;-60
2022/04/05 04:34:08;;;;;;;50.28;18.35;;;;;;;7.01;100.00;100412.81;7393687;19;20467;-58
2022/04/05 04:36:39;;;;;;;56.97;20.00;;;;;;;7.04;100.00;100408.34;7397043;19;20023;-58
2022/04/05 04:39:10;;;;;;;74.85;21.25;;;;;;;7.08;100.00;100414.28;7396358;19;20014;-55
2022/04/05 04:41:39;;;;;;;53.00;20.10;;;;;;;7.02;100.00;100409.28;7396601;19;20029;-58
2022/04/05 04:44:08;;;;;;;57.05;20.58;;;;;;;7.03;100.00;100411.84;7395108;19;20119;-60
2022/04/05 04:46:37;;;;;;;70.43;21.98;;;;;;;7.05;100.00;100412.66;7392300;19;20014;-60
2022/04/05 04:49:06;;;;;;;56.28;21.88;;;;;;;7.05;100.00;100410.03;7395737;19;20010;-60
2022/04/05 04:51:35;;;;;;;73.78;24.13;;;;;;;7.03;100.00;100409.22;7396438;19;20015;-58
2022/04/05 04:54:07;;;;;;;74.50;23.02;;;;;;;7.04;100.00;100412.69;7395625;19;20380;-59
2022/04/05 04:56:35;;;;;;;83.80;24.67;;;;;;;7.05;100.00;100407.44;7395906;19;20014;-60
2022/04/05 04:59:04;;;;;;;68.55;23.27;;;;;;;7.03;100.00;100408.38;7395536;19;20018;-60
2022/04/05 05:01:34;;;;;;;74.53;23.17;;;;;;;7.06;100.00;100413.47;7397824;19;20062;-61
2022/04/05 05:04:03;;;;;;;59.53;21.98;;;;;;;7.08;100.00;100417.75;7395182;19;20022;-57
2022/04/05 05:06:32;;;;;;;85.15;26.55;;;;;;;7.08;100.00;100411.69;7393956;19;20007;-60
2022/04/05 05:09:01;;;;;;;79.60;23.67;;;;;;;7.07;100.00;100410.81;7395343;19;20027;-54
2022/04/05 05:11:33;;;;;;;81.40;25.05;;;;;;;7.05;100.00;100403.97;7395778;19;20014;-54
2022/04/05 05:14:02;;;;;;;74.20;24.27;;;;;;;7.04;100.00;100408.34;7394068;19;20543;-53
2022/04/05 05:16:33;;;;;;;80.88;23.88;;;;;;;7.05;100.00;100402.22;7394715;19;20026;-57
2022/04/05 05:19:02;;;;;;;79.75;24.90;;;;;;;7.09;100.00;100405.56;7394591;19;20018;-59
2022/04/05 05:21:31;;;;;;;70.35;23.90;;;;;;;7.06;100.00;100395.25;7395118;19;20352;-58
2022/04/05 05:24:00;;;;;;;78.05;25.63;;;;;;;7.08;100.00;100411.69;7395571;19;20018;-59
2022/04/05 05:26:29;;;;;;;82.50;25.00;;;;;;;7.13;100.00;100401.09;7393245;19;20022;-58
2022/04/05 05:29:00;;;;;;;73.70;24.92;;;;;;;7.12;100.00;100402.00;7394063;19;20010;-57
2022/04/05 05:31:29;;;;;;;108.45;26.80;;;;;;;7.10;100.00;100408.09;7395052;19;20010;-56
2022/04/05 05:33:58;;;;;;;75.85;24.50;;;;;;;7.07;100.00;100409.97;7393875;19;20014;-57
2022/04/05 05:36:27;;;;;;;76.85;23.75;;;;;;;7.08;100.00;100406.47;7395221;19;20021;-61
2022/04/05 05:38:56;;;;;;;82.55;24.88;;;;;;;7.06;100.00;100403.06;7394771;19;20021;-57
2022/04/05 05:41:25;;;;;;;77.13;24.23;;;;;;;7.08;100.00;100409.91;7393472;19;20030;-56
2022/04/05 05:43:54;;;;;;;111.07;26.92;;;;;;;7.10;100.00;100397.69;7393013;19;20331;-57
2022/04/05 05:46:25;;;;;;;140.05;29.25;;;;;;;7.10;100.00;100409.88;7393208;19;20459;-59
2022/04/05 05:48:54;;;;;;;90.22;25.85;;;;;;;7.18;100.00;100399.16;7395026;19;20032;-57
2022/04/05 05:51:23;;;;;;;98.40;26.45;;;;;;;7.12;100.00;100405.47;7394089;19;20022;-59
2022/04/05 05:53:52;;;;;;;104.35;25.92;;;;;;;7.16;100.00;100408.78;7393390;19;20022;-57
2022/04/05 05:56:20;;;;;;;74.10;24.25;;;;;;;7.15;100.00;100405.34;7411120;19;20010;-58
2022/04/05 05:58:50;;;;;;;89.47;26.63;;;;;;;7.20;100.00;100408.63;7391312;19;20094;-56
2022/04/05 06:01:20;;;;;;;125.80;30.15;;;;;;;7.16;100.00;100416.63;7391308;19;20015;-59
2022/04/05 06:03:51;;;;;;;123.53;29.92;;;;;;;7.19;100.00;100412.16;7389059;19;20051;-58
2022/04/05 06:06:21;;;;;;;110.18;29.92;;;;;;;7.26;100.00;100408.41;7387693;19;20136;-58
2022/04/05 06:08:50;;;;;;;102.28;28.65;;;;;;;7.26;100.00;100411.00;7394354;19;20022;-56
2022/04/05 06:11:19;;;;;;;131.57;32.95;;;;;;;7.27;100.00;100409.25;7394194;19;20018;-55
2022/04/05 06:13:48;;;;;;;101.93;31.15;;;;;;;7.26;100.00;100411.00;7393414;19;20021;-55
2022/04/05 06:16:18;;;;;;;112.30;32.20;;;;;;;7.33;100.00;100410.78;7394889;19;20017;-56
2022/04/05 06:18:47;;;;;;;92.88;31.63;;;;;;;7.31;100.00;100409.97;7394373;19;20019;-53
2022/04/05 06:21:19;;;;;;;108.90;32.50;;;;;;;7.35;100.00;100412.44;7394296;19;20087;-54
2022/04/05 06:23:48;;;;;;;136.87;34.67;;;;;;;7.40;100.00;100414.84;7391436;19;20084;-52
2022/04/05 06:26:17;;;;;;;125.28;35.97;;;;;;;7.47;100.00;100418.09;7392604;19;20259;-56
2022/04/05 06:28:46;;;;;;;129.32;35.22;;;;;;;7.52;100.00;100422.22;7393381;19;20030;-54
2022/04/05 06:31:15;;;;;;;108.93;33.85;;;;;;;7.52;100.00;100421.34;7392686;19;20021;-55
2022/04/05 06:33:44;;;;;;;130.15;36.22;;;;;;;7.57;100.00;100419.44;7393437;19;20018;-54
2022/04/05 06:36:13;;;;;;;115.78;34.35;;;;;;;7.60;100.00;100419.31;7391788;19;20098;-56
2022/04/05 06:38:45;;;;;;;101.65;31.77;;;;;;;7.71;100.00;100421.47;7392408;19;20021;-59
2022/04/05 06:41:14;;;;;;;96.95;32.25;;;;;;;7.76;100.00;100425.63;7392671;19;20094;-56
2022/04/05 06:43:43;;;;;;;90.47;28.73;;;;;;;7.85;100.00;100426.16;7386797;19;20589;-55
2022/04/05 06:46:14;;;;;;;73.22;25.92;;;;;;;7.94;100.00;100423.22;7387211;19;20014;-54
2022/04/05 06:48:43;;;;;;;75.65;26.27;;;;;;;7.99;100.00;100423.88;7392846;19;20018;-56
2022/04/05 06:51:12;;;;;;;84.22;27.58;;;;;;;8.04;100.00;100421.06;7392564;19;20019;-56
2022/04/05 06:53:41;;;;;;;71.57;25.90;;;;;;;8.08;100.00;100415.69;7392119;19;20034;-58
2022/04/05 06:56:12;;;;;;;68.45;25.45;;;;;;;8.12;100.00;100414.66;7393618;19;20015;-56
2022/04/05 06:58:41;;;;;;;68.90;25.63;;;;;;;8.11;100.00;100420.78;7393174;19;20352;-58
2022/04/05 07:01:10;;;;;;;69.90;25.45;;;;;;;8.14;100.00;100420.66;7393750;19;20010;-56
2022/04/05 07:03:39;;;;;;;75.63;28.27;;;;;;;8.16;100.00;100425.81;7392825;19;20025;-52
2022/04/05 07:06:08;;;;;;;78.18;28.73;;;;;;;8.21;100.00;100428.22;7392869;19;20007;-58
2022/04/05 07:08:37;;;;;;;67.05;27.98;;;;;;;8.21;100.00;100421.25;7392933;19;20015;-58
2022/04/05 07:11:07;;;;;;;67.43;29.42;;;;;;;8.27;100.00;100427.97;7392454;19;20809;-56
2022/04/05 07:13:39;;;;;;;60.90;27.92;;;;;;;8.28;100.00;100429.66;7393152;19;20096;-55
2022/04/05 07:16:09;;;;;;;58.08;26.65;;;;;;;8.28;100.00;100427.91;7393280;19;20430;-55
2022/04/05 07:18:37;;;;;;;62.38;28.10;;;;;;;8.30;100.00;100427.84;7395476;19;20010;-55
2022/04/05 07:21:08;;;;;;;69.18;28.60;;;;;;;8.33;100.00;100425.13;7394674;19;20022;-56
2022/04/05 07:23:38;;;;;;;60.72;27.63;;;;;;;8.31;100.00;100421.72;7396992;19;20034;-58
2022/04/05 07:26:07;;;;;;;60.30;28.25;;;;;;;8.34;100.00;100421.59;7397851;19;20018;-55
2022/04/05 07:28:39;;;;;;;58.60;26.65;;;;;;;8.32;100.00;100421.66;7397527;19;20021;-53
2022/04/05 07:31:08;;;;;;;60.53;26.63;;;;;;;8.37;100.00;100420.59;7395804;19;20011;-53
2022/04/05 07:33:37;;;;;;;55.28;26.73;;;;;;;8.38;100.00;100427.53;7393796;19;20085;-54
2022/04/05 07:36:06;;;;;;;55.30;25.05;;;;;;;8.38;100.00;100430.13;7393576;19;20750;-53
2022/04/05 07:38:35;;;;;;;45.35;23.20;;;;;;;8.40;100.00;100425.72;7399309;19;20444;-58
2022/04/05 07:41:04;;;;;;;51.22;23.55;;;;;;;8.42;100.00;100427.31;7392075;19;20018;-56
2022/04/05 07:43:33;;;;;;;39.85;22.45;;;;;;;8.47;100.00;100419.34;7386279;19;20014;-58
2022/04/05 07:46:05;;;;;;;41.15;21.77;;;;;;;8.50;100.00;100416.63;7388951;19;20014;-58
2022/04/05 07:48:34;;;;;;;41.90;20.88;;;;;;;8.51;100.00;100426.16;7402493;19;20035;-59
2022/04/05 07:51:03;;;;;;;37.33;21.40;;;;;;;8.52;100.00;100420.00;7399794;19;20018;-56
2022/04/05 07:53:32;;;;;;;39.47;21.00;;;;;;;8.55;100.00;100424.25;7427537;19;20054;-61
2022/04/05 07:56:01;;;;;;;44.53;21.65;;;;;;;8.63;100.00;100430.00;7400672;19;20022;-60
2022/04/05 07:58:30;;;;;;;43.03;21.80;;;;;;;8.60;100.00;100430.13;7398372;19;20018;-59
2022/04/05 08:00:59;;;;;;;43.63;20.77;;;;;;;8.58;100.00;100435.44;7398961;19;20011;-59
2022/04/05 08:03:31;;;;;;;41.63;19.70;;;;;;;8.59;100.00;100426.66;7396782;19;20025;-56
2022/04/05 08:06:00;;;;;;;41.50;19.88;;;;;;;8.59;100.00;100439.72;7396851;19;20026;-56
2022/04/05 08:08:29;;;;;;;43.05;20.90;;;;;;;8.64;100.00;100436.94;7397741;19;20400;-58
2022/04/05 08:10:58;;;;;;;43.58;21.73;;;;;;;8.63;100.00;100436.06;7395867;19;20424;-59
2022/04/05 08:13:28;;;;;;;47.35;21.90;;;;;;;8.62;100.00;100436.13;7396761;19;20014;-59
2022/04/05 08:15:58;;;;;;;43.13;20.63;;;;;;;8.61;100.00;100443.13;7397977;19;20041;-59
2022/04/05 08:18:27;;;;;;;33.58;18.17;;;;;;;8.62;100.00;100447.41;7398331;19;20021;-59
2022/04/05 08:20:58;;;;;;;35.10;17.55;;;;;;;8.66;100.00;100450.75;7395909;19;20022;-59
2022/04/05 08:23:27;;;;;;;26.05;15.30;;;;;;;8.59;100.00;100442.31;7397045;19;20478;-57
2022/04/05 08:25:56;;;;;;;26.85;15.43;;;;;;;8.65;100.00;100449.06;7397496;19;20018;-59
2022/04/05 08:28:26;;;;;;;31.48;15.57;;;;;;;8.66;100.00;100455.97;7398076;19;20138;-58
2022/04/05 08:30:55;;;;;;;27.33;15.82;;;;;;;8.65;100.00;100452.53;7396231;19;20015;-59
2022/04/05 08:33:23;;;;;;;33.60;16.95;;;;;;;8.67;100.00;100452.47;7397271;19;20025;-60
2022/04/05 08:35:52;;;;;;;27.55;16.23;;;;;;;8.67;100.00;100447.25;7397786;19;20010;-58
2022/04/05 08:38:25;;;;;;;33.35;17.02;;;;;;;8.70;100.00;100454.06;7396812;19;20021;-57
2022/04/05 08:40:55;;;;;;;29.75;15.35;;;;;;;8.74;100.00;100453.03;7396624;19;20015;-59
2022/04/05 08:43:26;;;;;;;31.98;16.77;;;;;;;8.72;100.00;100458.31;7396331;19;20025;-60
2022/04/05 08:46:01;;;;;;;31.90;16.25;;;;;;;8.79;100.00;100459.75;7396309;19;20026;-59
2022/04/05 08:48:31;;;;;;;27.27;15.48;;;;;;;8.74;100.00;100466.97;7390897;19;20079;-59
2022/04/05 08:51:01;;;;;;;27.20;14.77;;;;;;;8.80;100.00;100469.31;7390352;19;20022;-60
2022/04/05 08:53:33;;;;;;;29.10;16.02;;;;;;;8.86;100.00;100467.34;7395313;19;20011;-58
2022/04/05 08:56:03;;;;;;;30.73;15.70;;;;;;;8.88;100.00;100473.34;7396660;19;20475;-59
2022/04/05 08:58:32;;;;;;;25.80;15.43;;;;;;;8.83;100.00;100470.94;7389739;19;20018;-57
2022/04/05 09:01:01;;;;;;;33.58;17.05;;;;;;;8.93;100.00;100458.34;7391589;19;20074;-58
2022/04/05 09:03:32;;;;;;;29.50;16.30;;;;;;;8.96;100.00;100464.28;7394731;19;20365;-57
2022/04/05 09:06:29;;;;;;;32.92;18.05;;;;;;;9.00;100.00;100463.22;7396168;19;20403;-55
2022/04/05 09:09:09;;;;;;;29.17;16.42;;;;;;;9.03;100.00;100461.38;7395810;19;20459;-63
2022/04/05 09:11:44;;;;;;;31.40;16.23;;;;;;;9.06;100.00;100462.09;7395807;19;20022;-60
2022/04/05 09:14:13;;;;;;;25.90;16.20;;;;;;;9.09;100.00;100464.59;7393891;19;20033;-59
2022/04/05 09:16:42;;;;;;;25.45;14.50;;;;;;;9.17;100.00;100464.25;7395125;19;20445;-60
2022/04/05 09:19:13;;;;;;;31.77;16.90;;;;;;;9.18;100.00;100461.59;7394447;19;20018;-60
2022/04/05 09:22:02;;;;;;;30.13;18.17;;;;;;;9.18;100.00;100460.72;7394829;19;20015;-60
2022/04/05 09:24:38;;;;;;;27.98;16.65;;;;;;;9.21;100.00;100460.56;7392376;19;20029;-60
2022/04/05 09:27:09;;;;;;;26.42;16.30;;;;;;;9.28;100.00;100458.53;7393740;19;20014;-59
2022/04/05 09:29:41;;;;;;;28.55;16.00;;;;;;;9.32;100.00;100466.16;7394142;19;20014;-60
2022/04/05 09:32:10;;;;;;;;;;;;;;;9.32;100.00;100455.72;7394829;19;20055;-60
2022/04/05 09:34:51;;;;;;;29.77;16.92;;;;;;;9.37;100.00;100460.75;7391959;19;19950;-59
2022/04/05 09:37:26;;;;;;;28.00;16.25;;;;;;;9.43;100.00;100464.88;7393962;19;20030;-60
2022/04/05 09:40:17;;;;;;;31.25;17.17;;;;;;;9.45;100.00;100466.47;7392837;19;20018;-59
2022/04/05 09:43:00;;;;;;;23.25;15.50;;;;;;;9.49;100.00;100456.72;7394211;19;20351;-57
2022/04/05 09:45:44;;;;;;;29.27;16.30;;;;;;;9.52;100.00;100457.44;7393657;19;20026;-59
2022/04/05 09:48:13;;;;;;;26.63;16.15;;;;;;;9.48;100.00;100465.50;7392525;19;20014;-60
2022/04/05 09:51:02;;;;;;;29.33;14.85;;;;;;;9.34;100.00;100463.47;7397137;19;20017;-54
2022/04/05 09:53:43;;;;;;;24.70;14.52;;;;;;;9.31;100.00;100466.25;7415434;19;20045;-59
2022/04/05 09:56:17;;;;;;;22.80;14.35;;;;;;;9.32;100.00;100457.50;7394809;19;20498;-59
2022/04/05 09:58:49;;;;;;;21.70;12.90;;;;;;;9.36;100.00;100464.28;7394172;19;20022;-57
2022/04/05 10:01:20;;;;;;;24.58;11.80;;;;;;;9.51;100.00;100462.72;7396383;19;20110;-60
2022/04/05 10:04:00;;;;;;;21.27;12.05;;;;;;;9.61;100.00;100458.75;7392822;19;20022;-59
2022/04/05 10:06:30;;;;;;;19.05;11.45;;;;;;;9.66;100.00;100467.25;7394811;19;20309;-59
2022/04/05 10:08:59;;;;;;;15.75;10.98;;;;;;;9.68;100.00;100475.03;7393605;19;20328;-56
2022/04/05 10:11:32;;;;;;;16.85;10.70;;;;;;;9.68;100.00;100475.88;7393755;19;20014;-59
2022/04/05 10:14:02;;;;;;;15.45;10.50;;;;;;;9.63;100.00;100471.81;7392230;19;20022;-59
2022/04/05 10:16:33;;;;;;;18.98;11.30;;;;;;;9.61;100.00;100473.63;7393149;19;20022;-59
2022/04/05 10:19:04;;;;;;;17.38;11.05;;;;;;;9.47;100.00;100480.34;7392870;19;20038;-57
2022/04/05 10:21:36;;;;;;;24.52;10.90;;;;;;;9.45;100.00;100481.31;7393948;19;20015;-57
2022/04/05 10:24:06;;;;;;;17.48;9.80;;;;;;;9.37;100.00;100471.22;7391913;19;20115;-58
2022/04/05 10:26:40;;;;;;;16.25;10.25;;;;;;;9.36;100.00;100482.59;7395141;19;20014;-59
2022/04/05 10:29:10;;;;;;;20.70;10.73;;;;;;;9.35;100.00;100486.09;7393088;19;20017;-56
2022/04/05 10:31:50;;;;;;;21.38;11.20;;;;;;;9.42;100.00;100479.69;7393002;19;20017;-59
2022/04/05 10:34:25;;;;;;;21.90;12.15;;;;;;;9.38;100.00;100487.75;7392509;19;20025;-59
2022/04/05 10:37:10;;;;;;;23.38;12.75;;;;;;;9.33;100.00;100487.97;7393571;19;20018;-58
2022/04/05 10:39:39;;;;;;;24.20;13.85;;;;;;;9.33;100.00;100487.97;7391668;19;20115;-60
2022/04/05 10:42:21;;;;;;;25.35;14.70;;;;;;;9.37;100.00;100488.66;7393343;19;20054;-59
2022/04/05 10:44:53;;;;;;;19.27;12.82;;;;;;;9.36;100.00;100487.81;7392122;19;20014;-61
2022/04/05 10:47:23;;;;;;;27.67;14.68;;;;;;;9.38;100.00;100487.75;7392318;19;20033;-60
2022/04/05 10:49:54;;;;;;;22.70;14.05;;;;;;;9.38;100.00;100488.59;7392709;19;20015;-59
2022/04/05 10:52:26;;;;;;;27.45;15.75;;;;;;;9.44;100.00;100493.56;7393337;19;20483;-60
2022/04/05 10:55:11;;;;;;;29.20;15.45;;;;;;;9.51;100.00;100481.03;7390241;19;20025;-59
2022/04/05 10:57:43;;;;;;;25.40;16.83;;;;;;;9.46;100.00;100488.25;7393272;19;20078;-60
2022/04/05 11:00:14;;;;;;;28.57;15.90;;;;;;;9.49;100.00;100485.50;7391413;19;20424;-59
2022/04/05 11:02:46;;;;;;;28.77;18.17;;;;;;;9.51;100.00;100489.75;7392866;19;20470;-59
2022/04/05 11:05:37;;;;;;;33.33;17.85;;;;;;;9.55;100.00;100484.38;7385266;19;20647;-65
2022/04/05 11:08:17;;;;;;;28.23;18.02;;;;;;;9.48;100.00;100483.78;7386498;19;20115;-59
2022/04/05 11:10:54;;;;;;;28.98;17.65;;;;;;;9.48;100.00;100483.78;7391430;19;20430;-58
2022/04/05 11:13:42;;;;;;;29.77;17.60;;;;;;;9.46;100.00;100477.78;7392650;19;20014;-60
2022/04/05 11:16:14;;;;;;;31.60;18.27;;;;;;;9.46;100.00;100483.03;7392174;19;20010;-59
2022/04/05 11:18:45;;;;;;;27.27;16.98;;;;;;;9.48;100.00;100483.78;7391765;19;20018;-61
2022/04/05 11:21:14;;;;;;;37.85;19.00;;;;;;;9.57;100.00;100485.16;7390898;19;20027;-60
2022/04/05 11:23:50;;;;;;;23.08;14.82;;;;;;;9.56;100.00;100493.94;7391520;19;20021;-60
2022/04/05 11:26:26;;;;;;;25.30;16.00;;;;;;;9.59;100.00;100488.56;7392294;19;20014;-60
2022/04/05 11:28:59;;;;;;;29.40;17.77;;;;;;;9.61;100.00;100489.31;7391495;19;20018;-58